Terminal Aerodrome Forecast
Issued by NWS Norman, OK

Home | Current Version | Previous Version | Text Only | Print | Product List | Glossary On
Versions: 1 2 3 4 5 6 7 8 9 10 11 12
000
FTUS44 KOUN 202345
TAFOKC
TAF
KOKC 202345Z 2100/2124 16010KT P6SM VCSH SCT005 OVC070
     FM210600 18007KT 5SM BR VCSH OVC005
     FM211000 17005KT 4SM BR OVC005
     FM211600 23005KT P6SM BKN015
     FM211900 35009KT P6SM SCT035=

USA.gov is the U.S. government's official web portal to all federal, state and local government web resources and services.